sensor_id;sensor_type;location;lat;lon;timestamp;pressure;altitude;pressure_sealevel;temperature;humidity
36242;BME280;22283;42.748;12.732;2023-02-17T00:00:41;99540.06;;;5.47;100.00
36242;BME280;22283;42.748;12.732;2023-02-17T00:05:42;99539.72;;;5.58;100.00
36242;BME280;22283;42.748;12.732;2023-02-17T00:10:43;99540.72;;;5.54;100.00
36242;BME280;22283;42.748;12.732;2023-02-17T00:15:44;99526.72;;;5.55;100.00
36242;BME280;22283;42.748;12.732;2023-02-17T00:20:44;99540.47;;;5.63;100.00
36242;BME280;22283;42.748;12.732;2023-02-17T00:25:45;99542.09;;;5.67;100.00
36242;BME280;22283;42.748;12.732;2023-02-17T00:30:45;99541.00;;;5.74;100.00
36242;BME280;22283;42.748;12.732;2023-02-17T00:35:46;99537.31;;;5.80;100.00
36242;BME280;22283;42.748;12.732;2023-02-17T00:40:47;99537.72;;;5.96;100.00
36242;BME280;22283;42.748;12.732;2023-02-17T00:45:47;99534.84;;;6.03;100.00
36242;BME280;22283;42.748;12.732;2023-02-17T00:50:48;99533.78;;;6.09;100.00
36242;BME280;22283;42.748;12.732;2023-02-17T00:55:49;99527.34;;;6.19;100.00
36242;BME280;22283;42.748;12.732;2023-02-17T01:00:50;99520.47;;;6.15;100.00
36242;BME280;22283;42.748;12.732;2023-02-17T01:05:51;99526.63;;;6.14;100.00
36242;BME280;22283;42.748;12.732;2023-02-17T01:10:53;99516.25;;;6.09;100.00
36242;BME280;22283;42.748;12.732;2023-02-17T01:15:54;99512.13;;;6.02;100.00
36242;BME280;22283;42.748;12.732;2023-02-17T01:20:55;99521.19;;;5.92;100.00
36242;BME280;22283;42.748;12.732;2023-02-17T01:25:55;99512.75;;;5.81;100.00
36242;BME280;22283;42.748;12.732;2023-02-17T01:30:56;99507.66;;;5.76;100.00
36242;BME280;22283;42.748;12.732;2023-02-17T01:36:01;99497.25;;;5.73;100.00
36242;BME280;22283;42.748;12.732;2023-02-17T01:41:04;99498.16;;;5.72;100.00
36242;BME280;22283;42.748;12.732;2023-02-17T01:46:06;99492.91;;;5.72;100.00
36242;BME280;22283;42.748;12.732;2023-02-17T01:56:15;99485.88;;;5.73;100.00
36242;BME280;22283;42.748;12.732;2023-02-17T02:01:16;99484.34;;;5.67;100.00
36242;BME280;22283;42.748;12.732;2023-02-17T02:06:25;99486.13;;;5.65;100.00
36242;BME280;22283;42.748;12.732;2023-02-17T02:11:26;99482.81;;;5.60;100.00
36242;BME280;22283;42.748;12.732;2023-02-17T02:16:49;99484.72;;;5.55;100.00
36242;BME280;22283;42.748;12.732;2023-02-17T02:22:07;99490.44;;;5.39;100.00
36242;BME280;22283;42.748;12.732;2023-02-17T02:28:18;99490.53;;;5.36;100.00
36242;BME280;22283;42.748;12.732;2023-02-17T02:38:12;99488.97;;;5.29;100.00
36242;BME280;22283;42.748;12.732;2023-02-17T02:43:15;99492.59;;;5.25;100.00
36242;BME280;22283;42.748;12.732;2023-02-17T02:48:15;99498.72;;;5.26;100.00
36242;BME280;22283;42.748;12.732;2023-02-17T03:09:08;99499.31;;;5.35;100.00
36242;BME280;22283;42.748;12.732;2023-02-17T03:14:13;99498.53;;;5.32;100.00
36242;BME280;22283;42.748;12.732;2023-02-17T03:19:16;99493.22;;;5.33;100.00
36242;BME280;22283;42.748;12.732;2023-02-17T03:24:17;99497.69;;;5.31;100.00
36242;BME280;22283;42.748;12.732;2023-02-17T03:29:18;99488.06;;;5.30;100.00
36242;BME280;22283;42.748;12.732;2023-02-17T03:34:20;99495.84;;;5.33;100.00
36242;BME280;22283;42.748;12.732;2023-02-17T03:39:21;99476.91;;;5.24;100.00
36242;BME280;22283;42.748;12.732;2023-02-17T03:44:21;99501.97;;;5.34;100.00
36242;BME280;22283;42.748;12.732;2023-02-17T03:49:22;99512.38;;;5.37;100.00
36242;BME280;22283;42.748;12.732;2023-02-17T03:54:23;99501.03;;;5.36;100.00
36242;BME280;22283;42.748;12.732;2023-02-17T03:59:24;99504.50;;;5.37;100.00
36242;BME280;22283;42.748;12.732;2023-02-17T04:04:24;99506.41;;;5.32;100.00
36242;BME280;22283;42.748;12.732;2023-02-17T04:09:25;99500.31;;;5.31;100.00
36242;BME280;22283;42.748;12.732;2023-02-17T04:14:26;99499.38;;;5.32;100.00
36242;BME280;22283;42.748;12.732;2023-02-17T04:19:26;99495.00;;;5.33;100.00
36242;BME280;22283;42.748;12.732;2023-02-17T04:24:27;99499.56;;;5.26;100.00
36242;BME280;22283;42.748;12.732;2023-02-17T04:29:28;99505.00;;;5.20;100.00
36242;BME280;22283;42.748;12.732;2023-02-17T04:34:28;99512.69;;;5.26;100.00
36242;BME280;22283;42.748;12.732;2023-02-17T04:39:29;99517.50;;;5.12;100.00
36242;BME280;22283;42.748;12.732;2023-02-17T04:44:30;99512.50;;;5.03;100.00
36242;BME280;22283;42.748;12.732;2023-02-17T04:49:31;99508.97;;;5.04;100.00
36242;BME280;22283;42.748;12.732;2023-02-17T04:54:31;99505.44;;;5.05;100.00
36242;BME280;22283;42.748;12.732;2023-02-17T04:59:32;99510.69;;;5.05;100.00
36242;BME280;22283;42.748;12.732;2023-02-17T05:04:33;99517.56;;;5.09;100.00
36242;BME280;22283;42.748;12.732;2023-02-17T05:09:34;99511.41;;;5.10;100.00
36242;BME280;22283;42.748;12.732;2023-02-17T05:14:34;99514.03;;;5.10;100.00
36242;BME280;22283;42.748;12.732;2023-02-17T05:19:35;99514.03;;;5.10;100.00
36242;BME280;22283;42.748;12.732;2023-02-17T05:24:36;99514.03;;;5.10;100.00
36242;BME280;22283;42.748;12.732;2023-02-17T05:29:36;99515.88;;;5.08;100.00
36242;BME280;22283;42.748;12.732;2023-02-17T05:34:38;99521.03;;;5.11;100.00
36242;BME280;22283;42.748;12.732;2023-02-17T05:39:39;99519.19;;;5.13;100.00
36242;BME280;22283;42.748;12.732;2023-02-17T05:44:39;99525.16;;;5.18;100.00
36242;BME280;22283;42.748;12.732;2023-02-17T05:49:40;99530.38;;;5.20;100.00
36242;BME280;22283;42.748;12.732;2023-02-17T05:54:41;99539.13;;;5.18;100.00
36242;BME280;22283;42.748;12.732;2023-02-17T05:59:41;99540.09;;;5.16;100.00
36242;BME280;22283;42.748;12.732;2023-02-17T06:04:42;99537.44;;;5.17;100.00
36242;BME280;22283;42.748;12.732;2023-02-17T06:09:43;99561.78;;;5.23;100.00
36242;BME280;22283;42.748;12.732;2023-02-17T06:14:43;99557.94;;;5.34;100.00
36242;BME280;22283;42.748;12.732;2023-02-17T06:19:44;99552.47;;;5.42;100.00
36242;BME280;22283;42.748;12.732;2023-02-17T06:24:44;99556.63;;;5.49;100.00
36242;BME280;22283;42.748;12.732;2023-02-17T06:29:45;99562.34;;;5.63;100.00
36242;BME280;22283;42.748;12.732;2023-02-17T06:34:46;99555.09;;;5.72;100.00
36242;BME280;22283;42.748;12.732;2023-02-17T06:39:46;99562.63;;;5.82;100.00
36242;BME280;22283;42.748;12.732;2023-02-17T06:44:47;99562.41;;;5.90;100.00
36242;BME280;22283;42.748;12.732;2023-02-17T06:49:48;99565.31;;;6.09;100.00
36242;BME280;22283;42.748;12.732;2023-02-17T06:54:49;99569.16;;;6.25;100.00
36242;BME280;22283;42.748;12.732;2023-02-17T06:59:49;99561.69;;;6.39;100.00
36242;BME280;22283;42.748;12.732;2023-02-17T07:04:50;99567.03;;;6.63;100.00
36242;BME280;22283;42.748;12.732;2023-02-17T07:09:50;99572.63;;;6.79;98.75
36242;BME280;22283;42.748;12.732;2023-02-17T07:14:51;99570.06;;;7.02;96.66
36242;BME280;22283;42.748;12.732;2023-02-17T07:19:52;99569.16;;;7.27;92.04
36242;BME280;22283;42.748;12.732;2023-02-17T07:24:52;99570.84;;;7.53;85.51
36242;BME280;22283;42.748;12.732;2023-02-17T07:29:53;99564.38;;;7.83;80.53
36242;BME280;22283;42.748;12.732;2023-02-17T07:34:54;99575.00;;;8.04;79.15
36242;BME280;22283;42.748;12.732;2023-02-17T07:39:55;99575.09;;;8.23;77.23
36242;BME280;22283;42.748;12.732;2023-02-17T07:44:59;99579.03;;;8.34;75.02
36242;BME280;22283;42.748;12.732;2023-02-17T07:49:59;99584.22;;;8.37;81.91
36242;BME280;22283;42.748;12.732;2023-02-17T07:55:00;99584.50;;;8.52;83.90
36242;BME280;22283;42.748;12.732;2023-02-17T08:00:03;99593.69;;;8.64;80.89
36242;BME280;22283;42.748;12.732;2023-02-17T08:05:13;99596.06;;;8.90;78.46
36242;BME280;22283;42.748;12.732;2023-02-17T08:10:13;99596.13;;;9.09;70.51
36242;BME280;22283;42.748;12.732;2023-02-17T08:15:33;99596.63;;;9.38;68.27
36242;BME280;22283;42.748;12.732;2023-02-17T08:20:34;99593.88;;;9.59;63.79
36242;BME280;22283;42.748;12.732;2023-02-17T08:25:35;99586.28;;;9.90;63.24
36242;BME280;22283;42.748;12.732;2023-02-17T08:30:36;99589.06;;;10.05;60.29
36242;BME280;22283;42.748;12.732;2023-02-17T08:35:37;99590.50;;;10.31;60.33
36242;BME280;22283;42.748;12.732;2023-02-17T08:40:38;99590.59;;;10.47;58.06
36242;BME280;22283;42.748;12.732;2023-02-17T08:45:39;99581.38;;;10.73;57.21
36242;BME280;22283;42.748;12.732;2023-02-17T08:50:39;99585.88;;;10.71;56.44
36242;BME280;22283;42.748;12.732;2023-02-17T08:55:40;99578.78;;;11.06;55.11
36242;BME280;22283;42.748;12.732;2023-02-17T09:00:41;99585.19;;;11.36;54.21
36242;BME280;22283;42.748;12.732;2023-02-17T09:05:42;99584.09;;;11.55;53.84
36242;BME280;22283;42.748;12.732;2023-02-17T09:10:42;99583.69;;;11.63;53.09
36242;BME280;22283;42.748;12.732;2023-02-17T09:15:43;99598.22;;;11.56;52.82
36242;BME280;22283;42.748;12.732;2023-02-17T09:20:44;99595.00;;;11.82;52.67
36242;BME280;22283;42.748;12.732;2023-02-17T09:25:45;99612.66;;;11.84;52.14
36242;BME280;22283;42.748;12.732;2023-02-17T09:30:46;99605.47;;;11.37;52.38
36242;BME280;22283;42.748;12.732;2023-02-17T09:35:46;99603.50;;;11.56;52.01
36242;BME280;22283;42.748;12.732;2023-02-17T09:40:48;99619.09;;;11.62;51.20
36242;BME280;22283;42.748;12.732;2023-02-17T09:45:53;99608.97;;;11.37;52.36
36242;BME280;22283;42.748;12.732;2023-02-17T09:51:00;99613.97;;;11.08;52.78
36242;BME280;22283;42.748;12.732;2023-02-17T09:56:04;99619.00;;;11.64;52.10
36242;BME280;22283;42.748;12.732;2023-02-17T10:01:14;99609.50;;;11.60;51.22
36242;BME280;22283;42.748;12.732;2023-02-17T10:06:27;99614.03;;;11.91;51.52
36242;BME280;22283;42.748;12.732;2023-02-17T10:11:33;99611.53;;;12.51;50.32
36242;BME280;22283;42.748;12.732;2023-02-17T10:16:38;99606.34;;;12.02;50.26
36242;BME280;22283;42.748;12.732;2023-02-17T10:21:50;99605.34;;;12.04;50.92
36242;BME280;22283;42.748;12.732;2023-02-17T10:27:27;99601.50;;;11.61;51.22
36242;BME280;22283;42.748;12.732;2023-02-17T10:32:33;99585.03;;;11.39;52.17
36242;BME280;22283;42.748;12.732;2023-02-17T10:37:45;99582.91;;;11.45;52.03
36242;BME280;22283;42.748;12.732;2023-02-17T10:42:49;99587.09;;;11.16;52.48
36242;BME280;22283;42.748;12.732;2023-02-17T10:47:56;99584.66;;;11.29;51.88
36242;BME280;22283;42.748;12.732;2023-02-17T10:52:58;99574.63;;;11.18;52.39
36242;BME280;22283;42.748;12.732;2023-02-17T10:58:08;99564.63;;;11.56;51.74
36242;BME280;22283;42.748;12.732;2023-02-17T11:03:23;99553.13;;;12.05;50.92
36242;BME280;22283;42.748;12.732;2023-02-17T11:08:39;99540.47;;;12.10;50.82
36242;BME280;22283;42.748;12.732;2023-02-17T11:13:55;99537.03;;;12.24;50.48
36242;BME280;22283;42.748;12.732;2023-02-17T11:18:58;99527.69;;;12.33;50.22
36242;BME280;22283;42.748;12.732;2023-02-17T11:24:04;99531.63;;;12.25;50.49
36242;BME280;22283;42.748;12.732;2023-02-17T11:29:16;99524.94;;;11.55;51.90
36242;BME280;22283;42.748;12.732;2023-02-17T11:34:21;99518.91;;;11.69;52.41
36242;BME280;22283;42.748;12.732;2023-02-17T11:39:23;99525.38;;;11.63;52.53
36242;BME280;22283;42.748;12.732;2023-02-17T11:44:26;99507.75;;;11.46;52.23
36242;BME280;22283;42.748;12.732;2023-02-17T12:00:20;99505.63;;;11.53;53.19
36242;BME280;22283;42.748;12.732;2023-02-17T12:05:29;99497.00;;;11.65;52.31
36242;BME280;22283;42.748;12.732;2023-02-17T12:11:00;99497.47;;;11.40;53.33
36242;BME280;22283;42.748;12.732;2023-02-17T12:26:49;99496.19;;;11.31;53.01
36242;BME280;22283;42.748;12.732;2023-02-17T12:42:56;99494.94;;;11.39;52.34
36242;BME280;22283;42.748;12.732;2023-02-17T12:48:09;99483.31;;;11.41;52.17
36242;BME280;22283;42.748;12.732;2023-02-17T12:53:18;99474.59;;;11.55;52.42
36242;BME280;22283;42.748;12.732;2023-02-17T12:58:27;99471.19;;;11.69;52.04
36242;BME280;22283;42.748;12.732;2023-02-17T13:03:29;99479.03;;;11.70;51.19
36242;BME280;22283;42.748;12.732;2023-02-17T13:08:52;99475.09;;;11.62;51.65
36242;BME280;22283;42.748;12.732;2023-02-17T13:13:55;99475.28;;;11.43;52.45
36242;BME280;22283;42.748;12.732;2023-02-17T13:19:06;99473.41;;;11.45;52.52
36242;BME280;22283;42.748;12.732;2023-02-17T13:24:15;99479.63;;;11.44;52.29
36242;BME280;22283;42.748;12.732;2023-02-17T13:34:34;99469.97;;;11.43;51.79
36242;BME280;22283;42.748;12.732;2023-02-17T13:39:36;99472.88;;;11.38;52.43
36242;BME280;22283;42.748;12.732;2023-02-17T13:44:40;99470.66;;;11.30;52.03
36242;BME280;22283;42.748;12.732;2023-02-17T13:49:41;99460.63;;;11.36;52.45
36242;BME280;22283;42.748;12.732;2023-02-17T13:54:55;99464.81;;;11.40;52.99
36242;BME280;22283;42.748;12.732;2023-02-17T14:00:19;99453.38;;;11.23;53.55
36242;BME280;22283;42.748;12.732;2023-02-17T14:10:26;99445.50;;;11.06;53.52
36242;BME280;22283;42.748;12.732;2023-02-17T14:15:30;99450.69;;;11.07;53.59
36242;BME280;22283;42.748;12.732;2023-02-17T14:20:34;99455.25;;;11.05;53.93
36242;BME280;22283;42.748;12.732;2023-02-17T14:25:38;99449.41;;;10.99;53.93
36242;BME280;22283;42.748;12.732;2023-02-17T14:30:39;99451.78;;;10.88;54.11
36242;BME280;22283;42.748;12.732;2023-02-17T14:36:01;99443.22;;;10.82;54.25
36242;BME280;22283;42.748;12.732;2023-02-17T14:41:05;99443.38;;;10.79;54.44
36242;BME280;22283;42.748;12.732;2023-02-17T14:46:05;99451.94;;;10.84;54.60
36242;BME280;22283;42.748;12.732;2023-02-17T14:51:14;99436.22;;;10.81;54.32
36242;BME280;22283;42.748;12.732;2023-02-17T14:56:27;99431.03;;;10.63;54.47
36242;BME280;22283;42.748;12.732;2023-02-17T15:01:36;99431.50;;;10.71;54.45
36242;BME280;22283;42.748;12.732;2023-02-17T15:06:39;99434.53;;;10.63;54.56
36242;BME280;22283;42.748;12.732;2023-02-17T15:11:41;99434.78;;;10.58;54.72
36242;BME280;22283;42.748;12.732;2023-02-17T15:16:45;99429.44;;;10.43;55.00
36242;BME280;22283;42.748;12.732;2023-02-17T15:21:49;99428.66;;;10.41;55.16
36242;BME280;22283;42.748;12.732;2023-02-17T15:26:50;99433.34;;;10.36;55.07
36242;BME280;22283;42.748;12.732;2023-02-17T15:31:52;99432.09;;;10.43;54.89
36242;BME280;22283;42.748;12.732;2023-02-17T15:36:53;99439.63;;;10.33;55.36
36242;BME280;22283;42.748;12.732;2023-02-17T15:41:57;99441.94;;;10.22;55.66
36242;BME280;22283;42.748;12.732;2023-02-17T15:46:59;99436.72;;;10.20;55.33
36242;BME280;22283;42.748;12.732;2023-02-17T15:52:00;99435.03;;;10.02;56.15
36242;BME280;22283;42.748;12.732;2023-02-17T15:57:01;99436.69;;;9.85;56.31
36242;BME280;22283;42.748;12.732;2023-02-17T16:02:16;99438.09;;;9.75;56.76
36242;BME280;22283;42.748;12.732;2023-02-17T16:07:18;99445.09;;;9.76;56.46
36242;BME280;22283;42.748;12.732;2023-02-17T16:12:19;99437.28;;;9.56;56.93
36242;BME280;22283;42.748;12.732;2023-02-17T16:17:26;99444.56;;;9.51;58.70
36242;BME280;22283;42.748;12.732;2023-02-17T16:22:27;99437.50;;;9.32;59.95
36242;BME280;22283;42.748;12.732;2023-02-17T16:27:29;99452.13;;;9.02;61.62
36242;BME280;22283;42.748;12.732;2023-02-17T16:32:30;99443.88;;;8.70;63.33
36242;BME280;22283;42.748;12.732;2023-02-17T16:37:30;99461.16;;;8.36;65.91
36242;BME280;22283;42.748;12.732;2023-02-17T16:42:31;99468.88;;;7.99;69.36
36242;BME280;22283;42.748;12.732;2023-02-17T16:47:31;99455.94;;;7.72;72.41
36242;BME280;22283;42.748;12.732;2023-02-17T16:52:33;99462.97;;;7.50;73.99
36242;BME280;22283;42.748;12.732;2023-02-17T16:57:34;99466.78;;;7.19;75.98
36242;BME280;22283;42.748;12.732;2023-02-17T17:02:34;99476.38;;;6.97;78.64
36242;BME280;22283;42.748;12.732;2023-02-17T17:07:37;99471.47;;;6.87;80.35
36242;BME280;22283;42.748;12.732;2023-02-17T17:12:38;99479.34;;;6.64;82.06
36242;BME280;22283;42.748;12.732;2023-02-17T17:17:43;99482.41;;;6.52;83.06
36242;BME280;22283;42.748;12.732;2023-02-17T17:22:47;99488.78;;;6.45;83.57
36242;BME280;22283;42.748;12.732;2023-02-17T17:27:49;99487.81;;;6.22;85.14
36242;BME280;22283;42.748;12.732;2023-02-17T17:32:50;99494.13;;;6.16;85.14
36242;BME280;22283;42.748;12.732;2023-02-17T17:37:54;99489.25;;;6.06;86.69
36242;BME280;22283;42.748;12.732;2023-02-17T17:42:56;99486.81;;;6.00;86.79
36242;BME280;22283;42.748;12.732;2023-02-17T17:47:57;99490.34;;;5.99;86.44
36242;BME280;22283;42.748;12.732;2023-02-17T17:53:01;99496.53;;;5.68;88.47
36242;BME280;22283;42.748;12.732;2023-02-17T17:58:02;99497.47;;;5.37;90.28
36242;BME280;22283;42.748;12.732;2023-02-17T18:03:02;99508.63;;;5.16;91.67
36242;BME280;22283;42.748;12.732;2023-02-17T18:08:05;99508.97;;;5.04;92.89
36242;BME280;22283;42.748;12.732;2023-02-17T18:13:06;99505.66;;;4.97;93.79
36242;BME280;22283;42.748;12.732;2023-02-17T18:18:08;99513.94;;;4.83;94.04
36242;BME280;22283;42.748;12.732;2023-02-17T18:23:10;99519.97;;;4.85;94.31
36242;BME280;22283;42.748;12.732;2023-02-17T18:28:11;99517.56;;;4.78;94.48
36242;BME280;22283;42.748;12.732;2023-02-17T18:33:12;99513.03;;;4.84;93.86
36242;BME280;22283;42.748;12.732;2023-02-17T18:38:13;99513.28;;;4.75;93.11
36242;BME280;22283;42.748;12.732;2023-02-17T18:43:14;99518.84;;;4.63;94.11
36242;BME280;22283;42.748;12.732;2023-02-17T18:48:16;99520.97;;;4.49;95.04
36242;BME280;22283;42.748;12.732;2023-02-17T18:53:17;99516.06;;;4.36;96.41
36242;BME280;22283;42.748;12.732;2023-02-17T18:58:18;99520.66;;;4.27;97.29
36242;BME280;22283;42.748;12.732;2023-02-17T19:03:18;99530.53;;;4.17;97.71
36242;BME280;22283;42.748;12.732;2023-02-17T19:08:19;99543.03;;;4.06;98.76
36242;BME280;22283;42.748;12.732;2023-02-17T19:13:20;99529.31;;;3.94;99.37
36242;BME280;22283;42.748;12.732;2023-02-17T19:18:20;99532.16;;;3.85;99.86
36242;BME280;22283;42.748;12.732;2023-02-17T19:23:21;99529.66;;;3.79;100.00
36242;BME280;22283;42.748;12.732;2023-02-17T19:28:22;99532.41;;;3.75;100.00
36242;BME280;22283;42.748;12.732;2023-02-17T19:33:23;99536.66;;;3.80;100.00
36242;BME280;22283;42.748;12.732;2023-02-17T19:38:24;99536.91;;;3.68;100.00
36242;BME280;22283;42.748;12.732;2023-02-17T19:43:25;99544.28;;;3.51;100.00
36242;BME280;22283;42.748;12.732;2023-02-17T19:48:25;99561.00;;;3.43;100.00
36242;BME280;22283;42.748;12.732;2023-02-17T19:53:26;99558.38;;;3.43;100.00
36242;BME280;22283;42.748;12.732;2023-02-17T19:58:27;99562.03;;;3.36;100.00
36242;BME280;22283;42.748;12.732;2023-02-17T20:03:28;99569.25;;;3.25;100.00
36242;BME280;22283;42.748;12.732;2023-02-17T20:08:29;99560.56;;;3.23;100.00
36242;BME280;22283;42.748;12.732;2023-02-17T20:13:29;99558.84;;;3.22;100.00
36242;BME280;22283;42.748;12.732;2023-02-17T20:18:30;99560.50;;;3.26;100.00
36242;BME280;22283;42.748;12.732;2023-02-17T20:23:31;99567.59;;;3.21;100.00
36242;BME280;22283;42.748;12.732;2023-02-17T20:28:32;99561.47;;;3.20;100.00
36242;BME280;22283;42.748;12.732;2023-02-17T20:33:33;99581.53;;;3.22;100.00
36242;BME280;22283;42.748;12.732;2023-02-17T20:38:34;99584.41;;;3.08;100.00
36242;BME280;22283;42.748;12.732;2023-02-17T20:43:36;99582.03;;;2.95;100.00
36242;BME280;22283;42.748;12.732;2023-02-17T20:48:37;99570.78;;;2.92;100.00
36242;BME280;22283;42.748;12.732;2023-02-17T20:53:41;99579.66;;;2.83;100.00
36242;BME280;22283;42.748;12.732;2023-02-17T20:58:43;99579.72;;;2.80;100.00
36242;BME280;22283;42.748;12.732;2023-02-17T21:03:44;99575.47;;;2.73;100.00
36242;BME280;22283;42.748;12.732;2023-02-17T21:08:44;99576.63;;;2.58;100.00
36242;BME280;22283;42.748;12.732;2023-02-17T21:13:45;99573.94;;;2.63;100.00
36242;BME280;22283;42.748;12.732;2023-02-17T21:18:46;99581.59;;;2.72;100.00
36242;BME280;22283;42.748;12.732;2023-02-17T21:23:47;99572.09;;;2.68;100.00
36242;BME280;22283;42.748;12.732;2023-02-17T21:28:49;99580.56;;;2.81;100.00
36242;BME280;22283;42.748;12.732;2023-02-17T21:33:49;99583.31;;;2.73;100.00
36242;BME280;22283;42.748;12.732;2023-02-17T21:38:50;99585.19;;;2.66;100.00
36242;BME280;22283;42.748;12.732;2023-02-17T21:43:51;99588.03;;;2.53;100.00
36242;BME280;22283;42.748;12.732;2023-02-17T21:49:11;99590.44;;;2.65;100.00
36242;BME280;22283;42.748;12.732;2023-02-17T21:54:12;99592.94;;;2.71;100.00
36242;BME280;22283;42.748;12.732;2023-02-17T21:59:13;99589.47;;;2.69;100.00
36242;BME280;22283;42.748;12.732;2023-02-17T22:04:13;99594.44;;;2.84;100.00
36242;BME280;22283;42.748;12.732;2023-02-17T22:09:14;99594.28;;;2.93;100.00
36242;BME280;22283;42.748;12.732;2023-02-17T22:14:18;99591.88;;;2.83;100.00
36242;BME280;22283;42.748;12.732;2023-02-17T22:19:22;99597.31;;;2.69;100.00
36242;BME280;22283;42.748;12.732;2023-02-17T22:24:22;99591.50;;;2.53;100.00
36242;BME280;22283;42.748;12.732;2023-02-17T22:29:26;99595.06;;;2.51;100.00
36242;BME280;22283;42.748;12.732;2023-02-17T22:34:26;99606.44;;;2.45;100.00
36242;BME280;22283;42.748;12.732;2023-02-17T22:39:28;99597.06;;;2.33;100.00
36242;BME280;22283;42.748;12.732;2023-02-17T22:44:28;99605.88;;;2.28;100.00
36242;BME280;22283;42.748;12.732;2023-02-17T22:49:29;99601.59;;;2.24;100.00
36242;BME280;22283;42.748;12.732;2023-02-17T22:54:30;99609.09;;;2.43;100.00
36242;BME280;22283;42.748;12.732;2023-02-17T22:59:30;99600.72;;;2.23;100.00
36242;BME280;22283;42.748;12.732;2023-02-17T23:04:31;99599.94;;;2.18;100.00
36242;BME280;22283;42.748;12.732;2023-02-17T23:09:31;99609.59;;;2.13;100.00
36242;BME280;22283;42.748;12.732;2023-02-17T23:14:37;99601.88;;;2.07;100.00
36242;BME280;22283;42.748;12.732;2023-02-17T23:19:39;99601.97;;;1.97;100.00
36242;BME280;22283;42.748;12.732;2023-02-17T23:24:44;99606.25;;;2.02;100.00
36242;BME280;22283;42.748;12.732;2023-02-17T23:29:45;99600.38;;;1.90;100.00
36242;BME280;22283;42.748;12.732;2023-02-17T23:34:45;99597.81;;;1.87;100.00
36242;BME280;22283;42.748;12.732;2023-02-17T23:39:46;99595.22;;;1.84;100.00
36242;BME280;22283;42.748;12.732;2023-02-17T23:44:46;99591.06;;;1.71;100.00
36242;BME280;22283;42.748;12.732;2023-02-17T23:49:47;99587.59;;;1.69;100.00
36242;BME280;22283;42.748;12.732;2023-02-17T23:54:48;99577.81;;;1.85;100.00
36242;BME280;22283;42.748;12.732;2023-02-17T23:59:51;99585.66;;;1.85;100.00
